sensor_id;sensor_type;location;lat;lon;timestamp;temperature;humidity
20672;DHT22;10495;50.922;4.760;2023-01-23T00:01:49;3.30;90.50
20672;DHT22;10495;50.922;4.760;2023-01-23T00:04:15;3.30;90.40
20672;DHT22;10495;50.922;4.760;2023-01-23T00:06:41;3.20;90.20
20672;DHT22;10495;50.922;4.760;2023-01-23T00:09:07;3.30;90.50
20672;DHT22;10495;50.922;4.760;2023-01-23T00:11:34;3.20;90.40
20672;DHT22;10495;50.922;4.760;2023-01-23T00:14:00;3.20;90.50
20672;DHT22;10495;50.922;4.760;2023-01-23T00:16:29;3.20;90.50
20672;DHT22;10495;50.922;4.760;2023-01-23T00:18:56;3.20;90.50
20672;DHT22;10495;50.922;4.760;2023-01-23T00:21:24;3.20;90.60
20672;DHT22;10495;50.922;4.760;2023-01-23T00:23:53;3.10;90.60
20672;DHT22;10495;50.922;4.760;2023-01-23T00:26:25;3.20;90.60
20672;DHT22;10495;50.922;4.760;2023-01-23T00:28:52;3.20;90.70
20672;DHT22;10495;50.922;4.760;2023-01-23T00:31:24;3.20;90.60
20672;DHT22;10495;50.922;4.760;2023-01-23T00:33:59;3.20;90.70
20672;DHT22;10495;50.922;4.760;2023-01-23T00:36:28;3.20;90.60
20672;DHT22;10495;50.922;4.760;2023-01-23T00:38:54;3.20;90.60
20672;DHT22;10495;50.922;4.760;2023-01-23T00:41:19;3.10;90.70
20672;DHT22;10495;50.922;4.760;2023-01-23T00:43:45;3.00;90.80
20672;DHT22;10495;50.922;4.760;2023-01-23T00:46:12;2.90;90.90
20672;DHT22;10495;50.922;4.760;2023-01-23T00:48:38;2.80;91.10
20672;DHT22;10495;50.922;4.760;2023-01-23T00:51:04;2.90;91.20
20672;DHT22;10495;50.922;4.760;2023-01-23T00:53:30;2.90;91.10
20672;DHT22;10495;50.922;4.760;2023-01-23T00:55:55;2.90;91.20
20672;DHT22;10495;50.922;4.760;2023-01-23T00:58:21;2.90;91.10
20672;DHT22;10495;50.922;4.760;2023-01-23T01:00:46;3.10;91.20
20672;DHT22;10495;50.922;4.760;2023-01-23T01:03:12;3.10;91.10
20672;DHT22;10495;50.922;4.760;2023-01-23T01:05:38;3.10;91.00
20672;DHT22;10495;50.922;4.760;2023-01-23T01:08:04;3.10;90.90
20672;DHT22;10495;50.922;4.760;2023-01-23T01:10:30;3.00;90.90
20672;DHT22;10495;50.922;4.760;2023-01-23T01:12:58;2.90;91.10
20672;DHT22;10495;50.922;4.760;2023-01-23T01:15:25;3.30;90.90
20672;DHT22;10495;50.922;4.760;2023-01-23T01:17:51;3.20;90.70
20672;DHT22;10495;50.922;4.760;2023-01-23T01:20:23;3.30;90.70
20672;DHT22;10495;50.922;4.760;2023-01-23T01:22:51;3.20;90.70
20672;DHT22;10495;50.922;4.760;2023-01-23T01:25:16;3.30;90.90
20672;DHT22;10495;50.922;4.760;2023-01-23T01:27:42;3.30;90.70
20672;DHT22;10495;50.922;4.760;2023-01-23T01:30:08;3.20;90.70
20672;DHT22;10495;50.922;4.760;2023-01-23T01:32:38;3.20;90.80
20672;DHT22;10495;50.922;4.760;2023-01-23T01:35:05;3.30;90.90
20672;DHT22;10495;50.922;4.760;2023-01-23T01:37:36;3.30;90.80
20672;DHT22;10495;50.922;4.760;2023-01-23T01:40:03;3.30;90.90
20672;DHT22;10495;50.922;4.760;2023-01-23T01:42:29;3.40;90.90
20672;DHT22;10495;50.922;4.760;2023-01-23T01:44:58;3.40;90.50
20672;DHT22;10495;50.922;4.760;2023-01-23T01:47:24;3.50;90.70
20672;DHT22;10495;50.922;4.760;2023-01-23T01:49:54;3.40;90.70
20672;DHT22;10495;50.922;4.760;2023-01-23T01:52:22;3.30;90.60
20672;DHT22;10495;50.922;4.760;2023-01-23T01:55:02;3.20;90.80
20672;DHT22;10495;50.922;4.760;2023-01-23T01:57:31;3.30;90.90
20672;DHT22;10495;50.922;4.760;2023-01-23T02:00:05;3.30;90.80
20672;DHT22;10495;50.922;4.760;2023-01-23T02:02:34;3.40;90.80
20672;DHT22;10495;50.922;4.760;2023-01-23T02:05:05;3.50;90.60
20672;DHT22;10495;50.922;4.760;2023-01-23T02:10:11;3.60;90.50
20672;DHT22;10495;50.922;4.760;2023-01-23T02:12:38;3.40;90.50
20672;DHT22;10495;50.922;4.760;2023-01-23T02:15:05;3.50;90.30
20672;DHT22;10495;50.922;4.760;2023-01-23T02:17:33;3.50;90.60
20672;DHT22;10495;50.922;4.760;2023-01-23T02:23:13;3.70;90.30
20672;DHT22;10495;50.922;4.760;2023-01-23T02:25:48;3.60;90.40
20672;DHT22;10495;50.922;4.760;2023-01-23T02:28:16;3.50;90.50
20672;DHT22;10495;50.922;4.760;2023-01-23T02:30:43;3.50;90.30
20672;DHT22;10495;50.922;4.760;2023-01-23T02:35:49;3.30;90.90
20672;DHT22;10495;50.922;4.760;2023-01-23T02:38:17;3.30;90.80
20672;DHT22;10495;50.922;4.760;2023-01-23T02:40:44;3.40;90.90
20672;DHT22;10495;50.922;4.760;2023-01-23T02:43:13;3.50;90.70
20672;DHT22;10495;50.922;4.760;2023-01-23T02:45:40;3.50;90.50
20672;DHT22;10495;50.922;4.760;2023-01-23T02:48:06;3.30;90.70
20672;DHT22;10495;50.922;4.760;2023-01-23T02:50:33;3.30;90.90
20672;DHT22;10495;50.922;4.760;2023-01-23T02:52:59;3.20;90.90
20672;DHT22;10495;50.922;4.760;2023-01-23T02:55:24;3.30;91.00
20672;DHT22;10495;50.922;4.760;2023-01-23T02:57:55;3.40;90.90
20672;DHT22;10495;50.922;4.760;2023-01-23T03:00:47;3.50;90.80
20672;DHT22;10495;50.922;4.760;2023-01-23T03:03:12;3.60;90.40
20672;DHT22;10495;50.922;4.760;2023-01-23T03:05:40;3.60;90.40
20672;DHT22;10495;50.922;4.760;2023-01-23T03:08:05;3.50;90.40
20672;DHT22;10495;50.922;4.760;2023-01-23T03:10:31;3.50;90.70
20672;DHT22;10495;50.922;4.760;2023-01-23T03:12:57;3.40;90.80
20672;DHT22;10495;50.922;4.760;2023-01-23T03:15:27;3.40;90.90
20672;DHT22;10495;50.922;4.760;2023-01-23T03:17:52;3.50;90.80
20672;DHT22;10495;50.922;4.760;2023-01-23T03:20:19;3.40;91.00
20672;DHT22;10495;50.922;4.760;2023-01-23T03:22:47;3.30;91.40
20672;DHT22;10495;50.922;4.760;2023-01-23T03:25:13;3.30;91.30
20672;DHT22;10495;50.922;4.760;2023-01-23T03:27:38;3.40;91.10
20672;DHT22;10495;50.922;4.760;2023-01-23T03:30:04;3.40;90.90
20672;DHT22;10495;50.922;4.760;2023-01-23T03:32:41;3.40;91.10
20672;DHT22;10495;50.922;4.760;2023-01-23T03:35:07;3.30;91.10
20672;DHT22;10495;50.922;4.760;2023-01-23T03:37:39;3.40;91.20
20672;DHT22;10495;50.922;4.760;2023-01-23T03:40:05;3.50;90.90
20672;DHT22;10495;50.922;4.760;2023-01-23T03:42:49;3.50;91.00
20672;DHT22;10495;50.922;4.760;2023-01-23T03:45:15;3.50;91.20
20672;DHT22;10495;50.922;4.760;2023-01-23T03:47:41;3.50;91.00
20672;DHT22;10495;50.922;4.760;2023-01-23T03:50:07;3.50;91.00
20672;DHT22;10495;50.922;4.760;2023-01-23T03:52:32;3.50;90.90
20672;DHT22;10495;50.922;4.760;2023-01-23T03:54:59;3.60;91.00
20672;DHT22;10495;50.922;4.760;2023-01-23T03:57:24;3.50;91.10
20672;DHT22;10495;50.922;4.760;2023-01-23T03:59:50;3.60;91.20
20672;DHT22;10495;50.922;4.760;2023-01-23T04:02:16;3.70;90.70
20672;DHT22;10495;50.922;4.760;2023-01-23T04:04:41;3.60;90.70
20672;DHT22;10495;50.922;4.760;2023-01-23T04:07:07;3.60;90.80
20672;DHT22;10495;50.922;4.760;2023-01-23T04:09:33;3.50;90.80
20672;DHT22;10495;50.922;4.760;2023-01-23T04:11:59;3.50;91.10
20672;DHT22;10495;50.922;4.760;2023-01-23T04:14:26;3.40;91.20
20672;DHT22;10495;50.922;4.760;2023-01-23T04:16:52;3.50;91.20
20672;DHT22;10495;50.922;4.760;2023-01-23T04:19:18;3.30;91.50
20672;DHT22;10495;50.922;4.760;2023-01-23T04:21:45;3.40;91.50
20672;DHT22;10495;50.922;4.760;2023-01-23T04:24:11;3.40;91.50
20672;DHT22;10495;50.922;4.760;2023-01-23T04:26:37;3.40;91.40
20672;DHT22;10495;50.922;4.760;2023-01-23T04:29:03;3.40;91.20
20672;DHT22;10495;50.922;4.760;2023-01-23T04:31:29;3.30;91.50
20672;DHT22;10495;50.922;4.760;2023-01-23T04:33:55;3.50;91.30
20672;DHT22;10495;50.922;4.760;2023-01-23T04:36:21;3.60;91.00
20672;DHT22;10495;50.922;4.760;2023-01-23T04:38:46;3.40;91.30
20672;DHT22;10495;50.922;4.760;2023-01-23T04:41:23;3.40;91.40
20672;DHT22;10495;50.922;4.760;2023-01-23T04:43:49;3.40;91.60
20672;DHT22;10495;50.922;4.760;2023-01-23T04:46:15;3.40;91.50
20672;DHT22;10495;50.922;4.760;2023-01-23T04:48:40;3.50;91.60
20672;DHT22;10495;50.922;4.760;2023-01-23T04:51:06;3.60;91.30
20672;DHT22;10495;50.922;4.760;2023-01-23T04:53:32;3.60;91.30
20672;DHT22;10495;50.922;4.760;2023-01-23T04:55:57;3.50;91.20
20672;DHT22;10495;50.922;4.760;2023-01-23T04:58:23;3.40;91.50
20672;DHT22;10495;50.922;4.760;2023-01-23T05:00:49;3.40;91.80
20672;DHT22;10495;50.922;4.760;2023-01-23T05:03:15;3.50;91.80
20672;DHT22;10495;50.922;4.760;2023-01-23T05:05:42;3.40;91.70
20672;DHT22;10495;50.922;4.760;2023-01-23T05:08:10;3.50;91.70
20672;DHT22;10495;50.922;4.760;2023-01-23T05:10:36;3.50;91.70
20672;DHT22;10495;50.922;4.760;2023-01-23T05:13:02;3.60;91.80
20672;DHT22;10495;50.922;4.760;2023-01-23T05:15:28;3.50;91.80
20672;DHT22;10495;50.922;4.760;2023-01-23T05:17:53;3.50;91.80
20672;DHT22;10495;50.922;4.760;2023-01-23T05:20:19;3.60;91.70
20672;DHT22;10495;50.922;4.760;2023-01-23T05:22:45;3.80;91.50
20672;DHT22;10495;50.922;4.760;2023-01-23T05:25:23;3.70;91.50
20672;DHT22;10495;50.922;4.760;2023-01-23T05:27:48;3.90;91.30
20672;DHT22;10495;50.922;4.760;2023-01-23T05:30:14;3.80;91.30
20672;DHT22;10495;50.922;4.760;2023-01-23T05:32:40;3.90;91.30
20672;DHT22;10495;50.922;4.760;2023-01-23T05:35:06;3.80;91.30
20672;DHT22;10495;50.922;4.760;2023-01-23T05:37:32;3.80;91.00
20672;DHT22;10495;50.922;4.760;2023-01-23T05:39:57;3.60;91.40
20672;DHT22;10495;50.922;4.760;2023-01-23T05:42:23;3.60;91.50
20672;DHT22;10495;50.922;4.760;2023-01-23T05:44:48;3.60;91.40
20672;DHT22;10495;50.922;4.760;2023-01-23T05:47:14;3.70;91.40
20672;DHT22;10495;50.922;4.760;2023-01-23T05:49:40;3.50;91.50
20672;DHT22;10495;50.922;4.760;2023-01-23T05:52:05;3.70;91.50
20672;DHT22;10495;50.922;4.760;2023-01-23T05:54:31;3.70;91.30
20672;DHT22;10495;50.922;4.760;2023-01-23T05:56:57;3.70;91.50
20672;DHT22;10495;50.922;4.760;2023-01-23T05:59:22;3.70;91.50
20672;DHT22;10495;50.922;4.760;2023-01-23T06:01:48;3.80;91.30
20672;DHT22;10495;50.922;4.760;2023-01-23T06:04:13;3.90;91.20
20672;DHT22;10495;50.922;4.760;2023-01-23T06:06:41;3.80;91.10
20672;DHT22;10495;50.922;4.760;2023-01-23T06:09:07;3.80;91.30
20672;DHT22;10495;50.922;4.760;2023-01-23T06:11:32;3.90;91.00
20672;DHT22;10495;50.922;4.760;2023-01-23T06:13:59;3.70;91.20
20672;DHT22;10495;50.922;4.760;2023-01-23T06:16:24;3.50;91.40
20672;DHT22;10495;50.922;4.760;2023-01-23T06:18:50;3.50;91.70
20672;DHT22;10495;50.922;4.760;2023-01-23T06:21:16;3.50;91.70
20672;DHT22;10495;50.922;4.760;2023-01-23T06:23:43;3.60;91.60
20672;DHT22;10495;50.922;4.760;2023-01-23T06:26:08;3.60;91.90
20672;DHT22;10495;50.922;4.760;2023-01-23T06:28:34;3.60;91.60
20672;DHT22;10495;50.922;4.760;2023-01-23T06:31:01;3.80;91.70
20672;DHT22;10495;50.922;4.760;2023-01-23T06:33:28;3.60;91.50
20672;DHT22;10495;50.922;4.760;2023-01-23T06:36:03;3.60;91.60
20672;DHT22;10495;50.922;4.760;2023-01-23T06:38:29;3.60;91.70
20672;DHT22;10495;50.922;4.760;2023-01-23T06:40:54;3.70;91.40
20672;DHT22;10495;50.922;4.760;2023-01-23T06:43:20;3.60;91.60
20672;DHT22;10495;50.922;4.760;2023-01-23T06:45:47;3.60;91.60
20672;DHT22;10495;50.922;4.760;2023-01-23T06:48:13;3.50;91.70
20672;DHT22;10495;50.922;4.760;2023-01-23T06:50:39;3.70;91.70
20672;DHT22;10495;50.922;4.760;2023-01-23T06:53:05;3.60;91.60
20672;DHT22;10495;50.922;4.760;2023-01-23T06:55:32;3.70;91.70
20672;DHT22;10495;50.922;4.760;2023-01-23T06:57:57;3.80;91.80
20672;DHT22;10495;50.922;4.760;2023-01-23T07:00:23;3.70;91.50
20672;DHT22;10495;50.922;4.760;2023-01-23T07:02:49;3.80;91.40
20672;DHT22;10495;50.922;4.760;2023-01-23T07:05:15;4.00;91.00
20672;DHT22;10495;50.922;4.760;2023-01-23T07:07:40;4.00;91.00
20672;DHT22;10495;50.922;4.760;2023-01-23T07:10:07;3.80;91.10
20672;DHT22;10495;50.922;4.760;2023-01-23T07:12:33;3.70;91.30
20672;DHT22;10495;50.922;4.760;2023-01-23T07:14:59;3.80;91.40
20672;DHT22;10495;50.922;4.760;2023-01-23T07:17:24;3.80;91.20
20672;DHT22;10495;50.922;4.760;2023-01-23T07:19:50;3.90;91.10
20672;DHT22;10495;50.922;4.760;2023-01-23T07:22:17;3.80;91.10
20672;DHT22;10495;50.922;4.760;2023-01-23T07:24:43;3.80;91.10
20672;DHT22;10495;50.922;4.760;2023-01-23T07:27:08;3.90;91.20
20672;DHT22;10495;50.922;4.760;2023-01-23T07:29:34;3.80;91.10
20672;DHT22;10495;50.922;4.760;2023-01-23T07:32:00;3.70;91.30
20672;DHT22;10495;50.922;4.760;2023-01-23T07:34:26;3.80;91.30
20672;DHT22;10495;50.922;4.760;2023-01-23T07:36:51;3.80;91.30
20672;DHT22;10495;50.922;4.760;2023-01-23T07:39:17;4.00;91.00
20672;DHT22;10495;50.922;4.760;2023-01-23T07:41:43;3.80;91.00
20672;DHT22;10495;50.922;4.760;2023-01-23T07:44:14;3.90;90.90
20672;DHT22;10495;50.922;4.760;2023-01-23T07:46:42;3.80;91.20
20672;DHT22;10495;50.922;4.760;2023-01-23T07:49:08;3.90;91.20
20672;DHT22;10495;50.922;4.760;2023-01-23T07:51:34;3.80;91.10
20672;DHT22;10495;50.922;4.760;2023-01-23T07:53:59;3.80;91.50
20672;DHT22;10495;50.922;4.760;2023-01-23T07:56:25;3.80;91.50
20672;DHT22;10495;50.922;4.760;2023-01-23T07:58:50;4.00;91.20
20672;DHT22;10495;50.922;4.760;2023-01-23T08:01:16;3.80;91.10
20672;DHT22;10495;50.922;4.760;2023-01-23T08:03:44;3.70;91.20
20672;DHT22;10495;50.922;4.760;2023-01-23T08:06:09;3.90;91.30
20672;DHT22;10495;50.922;4.760;2023-01-23T08:08:35;3.90;91.00
20672;DHT22;10495;50.922;4.760;2023-01-23T08:11:05;3.80;91.40
20672;DHT22;10495;50.922;4.760;2023-01-23T08:13:31;3.70;91.20
20672;DHT22;10495;50.922;4.760;2023-01-23T08:15:58;3.70;91.40
20672;DHT22;10495;50.922;4.760;2023-01-23T08:18:24;3.80;91.50
20672;DHT22;10495;50.922;4.760;2023-01-23T08:20:54;3.90;91.30
20672;DHT22;10495;50.922;4.760;2023-01-23T08:23:24;3.90;91.20
20672;DHT22;10495;50.922;4.760;2023-01-23T08:25:54;3.90;91.00
20672;DHT22;10495;50.922;4.760;2023-01-23T08:28:20;4.00;91.20
20672;DHT22;10495;50.922;4.760;2023-01-23T08:30:45;3.90;91.20
20672;DHT22;10495;50.922;4.760;2023-01-23T08:33:11;3.80;91.20
20672;DHT22;10495;50.922;4.760;2023-01-23T08:35:37;3.80;91.50
20672;DHT22;10495;50.922;4.760;2023-01-23T08:38:02;3.80;91.30
20672;DHT22;10495;50.922;4.760;2023-01-23T08:40:29;4.10;91.20
20672;DHT22;10495;50.922;4.760;2023-01-23T08:42:55;4.20;90.90
20672;DHT22;10495;50.922;4.760;2023-01-23T08:45:21;4.00;91.00
20672;DHT22;10495;50.922;4.760;2023-01-23T08:47:47;3.80;91.10
20672;DHT22;10495;50.922;4.760;2023-01-23T08:50:13;3.90;91.40
20672;DHT22;10495;50.922;4.760;2023-01-23T08:52:38;4.20;91.20
20672;DHT22;10495;50.922;4.760;2023-01-23T08:55:04;4.20;90.90
20672;DHT22;10495;50.922;4.760;2023-01-23T08:57:30;4.20;90.60
20672;DHT22;10495;50.922;4.760;2023-01-23T08:59:56;4.10;90.90
20672;DHT22;10495;50.922;4.760;2023-01-23T09:02:21;4.20;91.00
20672;DHT22;10495;50.922;4.760;2023-01-23T09:04:47;4.10;91.40
20672;DHT22;10495;50.922;4.760;2023-01-23T09:07:13;4.20;91.20
20672;DHT22;10495;50.922;4.760;2023-01-23T09:09:38;4.20;91.00
20672;DHT22;10495;50.922;4.760;2023-01-23T09:12:04;4.20;91.10
20672;DHT22;10495;50.922;4.760;2023-01-23T09:14:30;4.20;91.00
20672;DHT22;10495;50.922;4.760;2023-01-23T09:16:55;4.30;91.10
20672;DHT22;10495;50.922;4.760;2023-01-23T09:19:21;4.40;91.00
20672;DHT22;10495;50.922;4.760;2023-01-23T09:21:46;4.30;91.00
20672;DHT22;10495;50.922;4.760;2023-01-23T09:24:12;4.50;90.70
20672;DHT22;10495;50.922;4.760;2023-01-23T09:26:38;4.40;90.80
20672;DHT22;10495;50.922;4.760;2023-01-23T09:29:03;4.40;90.70
20672;DHT22;10495;50.922;4.760;2023-01-23T09:31:29;4.40;90.70
20672;DHT22;10495;50.922;4.760;2023-01-23T09:33:55;4.30;90.90
20672;DHT22;10495;50.922;4.760;2023-01-23T09:36:20;4.40;90.80
20672;DHT22;10495;50.922;4.760;2023-01-23T09:38:49;4.60;90.70
20672;DHT22;10495;50.922;4.760;2023-01-23T09:41:26;4.30;90.70
20672;DHT22;10495;50.922;4.760;2023-01-23T09:46:47;4.50;90.50
20672;DHT22;10495;50.922;4.760;2023-01-23T09:49:24;4.50;90.50
20672;DHT22;10495;50.922;4.760;2023-01-23T09:52:17;4.50;90.50
20672;DHT22;10495;50.922;4.760;2023-01-23T09:54:47;4.40;90.50
20672;DHT22;10495;50.922;4.760;2023-01-23T09:57:17;4.40;90.70
20672;DHT22;10495;50.922;4.760;2023-01-23T09:59:51;4.50;90.60
20672;DHT22;10495;50.922;4.760;2023-01-23T10:02:21;4.70;90.50
20672;DHT22;10495;50.922;4.760;2023-01-23T10:04:47;4.70;90.50
20672;DHT22;10495;50.922;4.760;2023-01-23T10:07:38;4.60;90.60
20672;DHT22;10495;50.922;4.760;2023-01-23T10:13:17;4.50;90.70
20672;DHT22;10495;50.922;4.760;2023-01-23T10:15:53;4.60;90.30
20672;DHT22;10495;50.922;4.760;2023-01-23T10:18:44;4.50;90.60
20672;DHT22;10495;50.922;4.760;2023-01-23T10:23:56;4.50;90.60
20672;DHT22;10495;50.922;4.760;2023-01-23T10:26:38;4.50;90.80
20672;DHT22;10495;50.922;4.760;2023-01-23T10:29:31;4.50;91.00
20672;DHT22;10495;50.922;4.760;2023-01-23T10:31:59;4.70;90.50
20672;DHT22;10495;50.922;4.760;2023-01-23T10:34:46;4.70;90.20
20672;DHT22;10495;50.922;4.760;2023-01-23T10:37:20;4.60;90.40
20672;DHT22;10495;50.922;4.760;2023-01-23T10:40:14;4.50;90.50
20672;DHT22;10495;50.922;4.760;2023-01-23T10:42:40;4.50;90.40
20672;DHT22;10495;50.922;4.760;2023-01-23T10:45:15;4.40;90.80
20672;DHT22;10495;50.922;4.760;2023-01-23T10:47:46;4.50;90.60
20672;DHT22;10495;50.922;4.760;2023-01-23T10:50:12;4.70;90.30
20672;DHT22;10495;50.922;4.760;2023-01-23T10:52:42;4.80;90.30
20672;DHT22;10495;50.922;4.760;2023-01-23T10:57:46;4.70;90.20
20672;DHT22;10495;50.922;4.760;2023-01-23T11:00:55;4.60;90.40
20672;DHT22;10495;50.922;4.760;2023-01-23T11:06:06;4.60;90.10
20672;DHT22;10495;50.922;4.760;2023-01-23T11:08:49;4.80;89.90
20672;DHT22;10495;50.922;4.760;2023-01-23T11:13:50;4.80;90.10
20672;DHT22;10495;50.922;4.760;2023-01-23T11:16:26;4.70;90.10
20672;DHT22;10495;50.922;4.760;2023-01-23T11:21:49;4.70;90.30
20672;DHT22;10495;50.922;4.760;2023-01-23T11:27:00;4.70;90.40
20672;DHT22;10495;50.922;4.760;2023-01-23T11:29:28;4.80;90.10
20672;DHT22;10495;50.922;4.760;2023-01-23T11:32:04;4.70;90.30
20672;DHT22;10495;50.922;4.760;2023-01-23T11:34:40;4.90;90.00
20672;DHT22;10495;50.922;4.760;2023-01-23T11:40:02;4.70;90.80
20672;DHT22;10495;50.922;4.760;2023-01-23T11:42:28;4.80;90.70
20672;DHT22;10495;50.922;4.760;2023-01-23T11:44:55;5.00;90.40
20672;DHT22;10495;50.922;4.760;2023-01-23T11:56:08;5.20;90.10
20672;DHT22;10495;50.922;4.760;2023-01-23T11:59:10;4.90;90.20
20672;DHT22;10495;50.922;4.760;2023-01-23T12:07:22;5.20;90.00
20672;DHT22;10495;50.922;4.760;2023-01-23T12:17:37;5.30;88.70
20672;DHT22;10495;50.922;4.760;2023-01-23T12:25:37;5.20;89.20
20672;DHT22;10495;50.922;4.760;2023-01-23T12:28:31;5.00;90.00
20672;DHT22;10495;50.922;4.760;2023-01-23T12:36:35;5.20;89.30
20672;DHT22;10495;50.922;4.760;2023-01-23T12:42:03;5.00;88.60
20672;DHT22;10495;50.922;4.760;2023-01-23T12:44:40;4.80;90.00
20672;DHT22;10495;50.922;4.760;2023-01-23T12:47:15;5.00;89.90
20672;DHT22;10495;50.922;4.760;2023-01-23T12:52:45;5.00;90.00
20672;DHT22;10495;50.922;4.760;2023-01-23T12:55:32;5.00;90.00
20672;DHT22;10495;50.922;4.760;2023-01-23T12:57:59;5.00;90.20
20672;DHT22;10495;50.922;4.760;2023-01-23T13:00:35;5.10;90.10
20672;DHT22;10495;50.922;4.760;2023-01-23T13:06:05;5.50;88.40
20672;DHT22;10495;50.922;4.760;2023-01-23T13:08:49;5.30;88.60
20672;DHT22;10495;50.922;4.760;2023-01-23T13:11:25;5.20;89.30
20672;DHT22;10495;50.922;4.760;2023-01-23T13:14:35;5.40;88.90
20672;DHT22;10495;50.922;4.760;2023-01-23T13:17:29;5.50;88.40
20672;DHT22;10495;50.922;4.760;2023-01-23T13:20:22;5.50;88.40
20672;DHT22;10495;50.922;4.760;2023-01-23T13:28:48;5.50;88.90
20672;DHT22;10495;50.922;4.760;2023-01-23T13:36:42;5.40;88.90
20672;DHT22;10495;50.922;4.760;2023-01-23T13:41:46;5.40;88.00
20672;DHT22;10495;50.922;4.760;2023-01-23T13:49:51;5.60;87.80
20672;DHT22;10495;50.922;4.760;2023-01-23T13:52:52;5.60;87.80
20672;DHT22;10495;50.922;4.760;2023-01-23T13:55:42;5.50;88.40
20672;DHT22;10495;50.922;4.760;2023-01-23T13:58:28;5.60;87.20
20672;DHT22;10495;50.922;4.760;2023-01-23T14:01:07;5.60;87.40
20672;DHT22;10495;50.922;4.760;2023-01-23T14:04:17;5.70;87.00
20672;DHT22;10495;50.922;4.760;2023-01-23T14:07:02;5.40;88.00
20672;DHT22;10495;50.922;4.760;2023-01-23T14:09:30;5.60;87.10
20672;DHT22;10495;50.922;4.760;2023-01-23T14:12:03;5.40;87.80
20672;DHT22;10495;50.922;4.760;2023-01-23T14:14:33;5.40;88.30
20672;DHT22;10495;50.922;4.760;2023-01-23T14:17:19;5.30;89.00
20672;DHT22;10495;50.922;4.760;2023-01-23T14:19:54;5.30;88.30
20672;DHT22;10495;50.922;4.760;2023-01-23T14:22:21;5.30;88.20
20672;DHT22;10495;50.922;4.760;2023-01-23T14:24:47;5.30;88.70
20672;DHT22;10495;50.922;4.760;2023-01-23T14:27:35;5.40;88.60
20672;DHT22;10495;50.922;4.760;2023-01-23T14:32:39;5.40;87.90
20672;DHT22;10495;50.922;4.760;2023-01-23T14:35:18;5.40;87.70
20672;DHT22;10495;50.922;4.760;2023-01-23T14:37:47;5.20;87.70
20672;DHT22;10495;50.922;4.760;2023-01-23T14:40:17;5.10;88.80
20672;DHT22;10495;50.922;4.760;2023-01-23T14:42:44;5.20;87.90
20672;DHT22;10495;50.922;4.760;2023-01-23T14:45:12;5.20;88.20
20672;DHT22;10495;50.922;4.760;2023-01-23T14:47:42;5.20;88.80
20672;DHT22;10495;50.922;4.760;2023-01-23T14:50:14;5.20;87.80
20672;DHT22;10495;50.922;4.760;2023-01-23T14:52:40;5.20;87.70
20672;DHT22;10495;50.922;4.760;2023-01-23T14:55:20;5.10;88.30
20672;DHT22;10495;50.922;4.760;2023-01-23T14:57:46;5.10;87.90
20672;DHT22;10495;50.922;4.760;2023-01-23T15:00:16;5.20;87.50
20672;DHT22;10495;50.922;4.760;2023-01-23T15:02:43;5.20;87.20
20672;DHT22;10495;50.922;4.760;2023-01-23T15:08:15;5.20;87.00
20672;DHT22;10495;50.922;4.760;2023-01-23T15:10:47;5.00;87.30
20672;DHT22;10495;50.922;4.760;2023-01-23T15:13:24;4.90;87.70
20672;DHT22;10495;50.922;4.760;2023-01-23T15:16:03;5.00;87.10
20672;DHT22;10495;50.922;4.760;2023-01-23T15:18:31;5.00;87.40
20672;DHT22;10495;50.922;4.760;2023-01-23T15:21:04;5.10;85.00
20672;DHT22;10495;50.922;4.760;2023-01-23T15:23:35;5.10;85.00
20672;DHT22;10495;50.922;4.760;2023-01-23T15:28:40;5.00;85.30
20672;DHT22;10495;50.922;4.760;2023-01-23T15:39:23;5.20;83.80
20672;DHT22;10495;50.922;4.760;2023-01-23T15:41:53;4.90;83.90
20672;DHT22;10495;50.922;4.760;2023-01-23T15:44:20;4.70;85.60
20672;DHT22;10495;50.922;4.760;2023-01-23T15:46:47;4.70;85.70
20672;DHT22;10495;50.922;4.760;2023-01-23T15:49:13;4.80;85.70
20672;DHT22;10495;50.922;4.760;2023-01-23T15:51:38;4.80;85.90
20672;DHT22;10495;50.922;4.760;2023-01-23T15:54:05;4.80;85.80
20672;DHT22;10495;50.922;4.760;2023-01-23T15:56:35;5.20;84.80
20672;DHT22;10495;50.922;4.760;2023-01-23T15:59:01;4.90;85.00
20672;DHT22;10495;50.922;4.760;2023-01-23T16:01:30;4.80;85.80
20672;DHT22;10495;50.922;4.760;2023-01-23T16:03:56;4.70;86.30
20672;DHT22;10495;50.922;4.760;2023-01-23T16:06:23;4.80;85.90
20672;DHT22;10495;50.922;4.760;2023-01-23T16:08:52;4.90;85.10
20672;DHT22;10495;50.922;4.760;2023-01-23T16:11:18;4.80;84.90
20672;DHT22;10495;50.922;4.760;2023-01-23T16:13:44;4.70;85.70
20672;DHT22;10495;50.922;4.760;2023-01-23T16:16:15;4.80;84.20
20672;DHT22;10495;50.922;4.760;2023-01-23T16:18:41;4.80;84.20
20672;DHT22;10495;50.922;4.760;2023-01-23T16:21:13;4.60;84.40
20672;DHT22;10495;50.922;4.760;2023-01-23T16:23:40;4.70;84.50
20672;DHT22;10495;50.922;4.760;2023-01-23T16:26:19;4.80;83.30
20672;DHT22;10495;50.922;4.760;2023-01-23T16:28:45;4.70;83.30
20672;DHT22;10495;50.922;4.760;2023-01-23T16:31:15;4.60;83.30
20672;DHT22;10495;50.922;4.760;2023-01-23T16:33:41;4.30;84.40
20672;DHT22;10495;50.922;4.760;2023-01-23T16:36:12;4.50;84.90
20672;DHT22;10495;50.922;4.760;2023-01-23T16:38:38;4.60;83.80
20672;DHT22;10495;50.922;4.760;2023-01-23T16:41:04;4.70;82.90
20672;DHT22;10495;50.922;4.760;2023-01-23T16:43:30;4.50;83.70
20672;DHT22;10495;50.922;4.760;2023-01-23T16:45:56;4.40;83.70
20672;DHT22;10495;50.922;4.760;2023-01-23T16:48:23;4.50;83.80
20672;DHT22;10495;50.922;4.760;2023-01-23T16:50:51;4.60;83.50
20672;DHT22;10495;50.922;4.760;2023-01-23T16:53:25;4.90;82.80
20672;DHT22;10495;50.922;4.760;2023-01-23T16:55:53;4.50;83.20
20672;DHT22;10495;50.922;4.760;2023-01-23T16:58:25;4.60;83.40
20672;DHT22;10495;50.922;4.760;2023-01-23T17:01:02;4.90;82.20
20672;DHT22;10495;50.922;4.760;2023-01-23T17:03:34;5.00;82.30
20672;DHT22;10495;50.922;4.760;2023-01-23T17:06:01;4.90;82.10
20672;DHT22;10495;50.922;4.760;2023-01-23T17:08:26;4.80;82.70
20672;DHT22;10495;50.922;4.760;2023-01-23T17:10:56;4.80;83.00
20672;DHT22;10495;50.922;4.760;2023-01-23T17:13:25;4.70;83.00
20672;DHT22;10495;50.922;4.760;2023-01-23T17:15:53;4.60;84.10
20672;DHT22;10495;50.922;4.760;2023-01-23T17:18:24;4.80;83.00
20672;DHT22;10495;50.922;4.760;2023-01-23T17:20:51;4.80;82.10
20672;DHT22;10495;50.922;4.760;2023-01-23T17:23:21;4.60;82.50
20672;DHT22;10495;50.922;4.760;2023-01-23T17:25:47;4.80;82.30
20672;DHT22;10495;50.922;4.760;2023-01-23T17:28:14;4.80;81.90
20672;DHT22;10495;50.922;4.760;2023-01-23T17:30:41;4.50;83.20
20672;DHT22;10495;50.922;4.760;2023-01-23T17:33:33;4.60;83.00
20672;DHT22;10495;50.922;4.760;2023-01-23T17:35:59;4.80;82.70
20672;DHT22;10495;50.922;4.760;2023-01-23T17:38:28;4.60;82.90
20672;DHT22;10495;50.922;4.760;2023-01-23T17:40:59;4.50;83.50
20672;DHT22;10495;50.922;4.760;2023-01-23T17:43:25;4.60;83.60
20672;DHT22;10495;50.922;4.760;2023-01-23T17:45:51;4.60;83.30
20672;DHT22;10495;50.922;4.760;2023-01-23T17:48:28;4.70;82.50
20672;DHT22;10495;50.922;4.760;2023-01-23T17:50:55;4.80;83.20